createdAt,value
2018-09-22T00:00:54.317Z,1.53
2018-09-22T00:01:59.803Z,1.20
2018-09-22T00:03:05.327Z,1.47
2018-09-22T00:04:10.773Z,1.73
2018-09-22T00:05:16.220Z,1.33
2018-09-22T00:06:21.706Z,1.83
2018-09-22T00:07:27.182Z,1.93
2018-09-22T00:08:32.653Z,1.80
2018-09-22T00:09:38.135Z,1.57
2018-09-22T00:10:43.572Z,1.87
2018-09-22T00:11:48.989Z,1.83
2018-09-22T00:12:54.420Z,1.60
2018-09-22T00:13:59.909Z,1.87
2018-09-22T00:15:05.468Z,1.70
2018-09-22T00:16:11.321Z,2.40
2018-09-22T00:17:16.858Z,2.23
2018-09-22T00:18:22.397Z,2.10
2018-09-22T00:19:27.905Z,2.03
2018-09-22T00:20:33.337Z,2.00
2018-09-22T00:21:38.766Z,2.27
2018-09-22T00:22:44.240Z,2.50
2018-09-22T00:23:49.994Z,2.50
2018-09-22T00:24:55.630Z,2.07
2018-09-22T00:26:01.182Z,1.90
2018-09-22T00:27:06.955Z,2.17
2018-09-22T00:28:12.409Z,1.87
2018-09-22T00:29:17.890Z,2.90
2018-09-22T00:30:23.326Z,2.17
2018-09-22T00:31:28.844Z,2.60
2018-09-22T00:32:34.280Z,2.40
2018-09-22T00:33:39.733Z,2.17
2018-09-22T00:34:45.162Z,3.03
2018-09-22T00:35:50.577Z,2.87
2018-09-22T00:36:55.993Z,2.53
2018-09-22T00:38:01.517Z,2.60
2018-09-22T00:39:09.839Z,3.17
2018-09-22T00:40:15.254Z,2.80
2018-09-22T00:41:20.741Z,3.23
2018-09-22T00:42:26.212Z,2.23
2018-09-22T00:43:31.636Z,2.27
2018-09-22T00:44:37.159Z,2.47
2018-09-22T00:45:42.889Z,2.60
2018-09-22T00:46:48.308Z,2.00
2018-09-22T00:47:53.738Z,2.87
2018-09-22T00:48:59.164Z,3.10
2018-09-22T00:50:04.703Z,2.30
2018-09-22T00:51:10.229Z,2.60
2018-09-22T00:52:15.725Z,3.10
2018-09-22T00:53:21.157Z,3.10
2018-09-22T00:54:26.689Z,3.00
2018-09-22T00:55:32.072Z,2.83
2018-09-22T00:56:37.570Z,3.47
2018-09-22T00:57:43.023Z,2.50
2018-09-22T00:58:48.443Z,2.53
2018-09-22T00:59:53.868Z,2.20
2018-09-22T01:00:59.381Z,2.50
2018-09-22T01:02:04.890Z,3.10
2018-09-22T01:03:10.377Z,2.50
2018-09-22T01:04:15.830Z,2.23
2018-09-22T01:05:21.240Z,2.90
2018-09-22T01:06:26.721Z,3.40
2018-09-22T01:07:32.212Z,2.57
2018-09-22T01:08:37.705Z,2.70
2018-09-22T01:09:43.204Z,3.00
2018-09-22T01:10:48.860Z,2.27
2018-09-22T01:11:54.324Z,2.27
2018-09-22T01:12:59.961Z,3.07
2018-09-22T01:14:05.413Z,1.93
2018-09-22T01:15:10.853Z,2.30
2018-09-22T01:16:16.346Z,1.90
2018-09-22T01:17:21.766Z,2.47
2018-09-22T01:18:27.264Z,2.80
2018-09-22T01:19:32.740Z,2.83
2018-09-22T01:20:38.280Z,2.43
2018-09-22T01:21:43.768Z,1.93
2018-09-22T01:22:49.213Z,1.97
2018-09-22T01:23:54.651Z,2.40
2018-09-22T01:25:00.102Z,2.80
2018-09-22T01:26:05.533Z,2.20
2018-09-22T01:27:11.044Z,2.83
2018-09-22T01:28:16.486Z,2.30
2018-09-22T01:29:21.908Z,2.70
2018-09-22T01:30:27.348Z,2.53
2018-09-22T01:31:32.788Z,2.40
2018-09-22T01:32:38.621Z,2.60
2018-09-22T01:33:44.074Z,2.10
2018-09-22T01:34:49.649Z,2.53
2018-09-22T01:35:55.095Z,2.30
2018-09-22T01:37:00.718Z,3.17
2018-09-22T01:38:06.277Z,2.60
2018-09-22T01:39:12.404Z,2.60
2018-09-22T01:40:18.058Z,2.70
2018-09-22T01:41:23.522Z,2.10
2018-09-22T01:42:28.995Z,2.87
2018-09-22T01:43:34.475Z,2.10
2018-09-22T01:44:40.035Z,2.57
2018-09-22T01:45:45.513Z,2.30
2018-09-22T01:46:50.990Z,2.90
2018-09-22T01:47:56.505Z,2.77
2018-09-22T01:49:02.234Z,2.20
2018-09-22T01:50:07.692Z,2.10
2018-09-22T01:51:13.321Z,2.63
2018-09-22T01:52:18.814Z,2.40
2018-09-22T01:53:24.198Z,2.00
2018-09-22T01:54:29.722Z,2.77
2018-09-22T01:55:35.156Z,1.70
2018-09-22T01:56:40.565Z,2.50
2018-09-22T01:57:46.159Z,2.60
2018-09-22T01:58:51.645Z,1.80
2018-09-22T01:59:57.065Z,2.57
2018-09-22T02:01:02.708Z,2.60
2018-09-22T02:02:08.169Z,2.37
2018-09-22T02:03:13.838Z,2.03
2018-09-22T02:04:19.282Z,2.20
2018-09-22T02:05:24.809Z,2.70
2018-09-22T02:06:30.394Z,3.17
2018-09-22T02:07:35.845Z,2.17
2018-09-22T02:08:41.315Z,2.70
2018-09-22T02:09:46.780Z,2.37
2018-09-22T02:10:52.386Z,2.50
2018-09-22T02:11:57.838Z,2.50
2018-09-22T02:13:03.297Z,2.40
2018-09-22T02:14:08.797Z,3.43
2018-09-22T02:15:14.274Z,2.30
2018-09-22T02:16:19.718Z,2.43
2018-09-22T02:17:25.258Z,1.83
2018-09-22T02:18:30.704Z,1.87
2018-09-22T02:19:36.142Z,1.60
2018-09-22T02:20:41.778Z,2.20
2018-09-22T02:21:47.442Z,4.20
2018-09-22T02:22:52.925Z,2.30
2018-09-22T02:23:58.386Z,2.47
2018-09-22T02:25:03.894Z,2.43
2018-09-22T02:26:09.325Z,2.70
2018-09-22T02:27:14.801Z,2.80
2018-09-22T02:28:20.235Z,2.20
2018-09-22T02:29:25.714Z,3.30
2018-09-22T02:30:31.189Z,1.87
2018-09-22T02:31:36.777Z,2.00
2018-09-22T02:32:42.207Z,2.60
2018-09-22T02:33:47.661Z,2.57
2018-09-22T02:34:53.083Z,2.20
2018-09-22T02:35:58.546Z,2.40
2018-09-22T02:37:04.031Z,3.00
2018-09-22T02:38:09.431Z,2.63
2018-09-22T02:39:14.941Z,2.67
2018-09-22T02:40:20.376Z,2.93
2018-09-22T02:41:25.837Z,2.23
2018-09-22T02:42:31.299Z,2.40
2018-09-22T02:43:36.693Z,2.43
2018-09-22T02:44:42.244Z,2.47
2018-09-22T02:45:47.672Z,2.40
2018-09-22T02:46:53.190Z,2.33
2018-09-22T02:47:58.612Z,2.70
2018-09-22T02:49:04.158Z,2.50
2018-09-22T02:50:09.617Z,2.90
2018-09-22T02:51:15.021Z,2.77
2018-09-22T02:52:20.508Z,2.23
2018-09-22T02:53:25.924Z,2.83
2018-09-22T02:54:31.421Z,2.57
2018-09-22T02:55:36.961Z,2.57
2018-09-22T02:56:42.396Z,2.63
2018-09-22T02:57:47.821Z,2.40
2018-09-22T02:58:53.232Z,2.63
2018-09-22T02:59:58.660Z,4.30
2018-09-22T03:01:04.240Z,2.50
2018-09-22T03:02:09.980Z,3.80
2018-09-22T03:03:15.436Z,2.87
2018-09-22T03:04:21.041Z,2.60
2018-09-22T03:05:26.505Z,2.60
2018-09-22T03:06:32.382Z,3.37
2018-09-22T03:07:37.789Z,3.37
2018-09-22T03:08:43.229Z,3.30
2018-09-22T03:09:48.670Z,2.93
2018-09-22T03:10:54.076Z,2.80
2018-09-22T03:11:59.543Z,3.37
2018-09-22T03:13:05.071Z,3.40
2018-09-22T03:14:10.789Z,3.30
2018-09-22T03:15:16.308Z,2.93
2018-09-22T03:16:21.772Z,2.53
2018-09-22T03:17:27.177Z,2.40
2018-09-22T03:18:32.664Z,3.10
2018-09-22T03:19:38.142Z,2.80
2018-09-22T03:20:43.761Z,3.30
2018-09-22T03:21:49.297Z,2.40
2018-09-22T03:22:54.826Z,3.43
2018-09-22T03:24:00.286Z,2.63
2018-09-22T03:25:05.924Z,2.87
2018-09-22T03:26:11.429Z,2.60
2018-09-22T03:27:16.871Z,2.93
2018-09-22T03:28:22.287Z,3.07
2018-09-22T03:29:27.763Z,3.90
2018-09-22T03:30:33.277Z,3.20
2018-09-22T03:31:38.706Z,2.83
2018-09-22T03:32:44.152Z,2.83
2018-09-22T03:33:49.611Z,2.60
2018-09-22T03:34:55.053Z,2.43
2018-09-22T03:36:00.498Z,2.20
2018-09-22T03:37:06.015Z,2.60
2018-09-22T03:38:11.626Z,2.50
2018-09-22T03:39:17.042Z,2.50
2018-09-22T03:40:22.493Z,3.07
2018-09-22T03:41:27.908Z,2.57
2018-09-22T03:42:33.434Z,4.20
2018-09-22T03:43:38.971Z,2.70
2018-09-22T03:44:44.404Z,3.37
2018-09-22T03:45:49.808Z,3.17
2018-09-22T03:46:55.293Z,3.40
2018-09-22T03:48:00.749Z,2.53
2018-09-22T03:49:06.509Z,2.40
2018-09-22T03:50:11.934Z,2.53
2018-09-22T03:51:17.404Z,2.50
2018-09-22T03:52:22.922Z,2.90
2018-09-22T03:53:28.352Z,2.97
2018-09-22T03:54:33.822Z,3.13
2018-09-22T03:55:39.498Z,2.17
2018-09-22T03:56:45.014Z,2.80
2018-09-22T03:57:50.516Z,2.40
2018-09-22T03:58:55.994Z,2.80
2018-09-22T04:00:01.472Z,2.27
2018-09-22T04:01:07.174Z,3.17
2018-09-22T04:02:12.606Z,2.40
2018-09-22T04:03:18.032Z,2.40
2018-09-22T04:04:24.027Z,2.53
2018-09-22T04:05:29.501Z,2.70
2018-09-22T04:06:34.942Z,3.00
2018-09-22T04:07:40.409Z,3.03
2018-09-22T04:08:45.918Z,2.27
2018-09-22T04:09:51.338Z,2.40
2018-09-22T04:10:56.752Z,3.17
2018-09-22T04:12:02.238Z,2.60
2018-09-22T04:13:07.686Z,3.03
2018-09-22T04:14:13.355Z,2.97
2018-09-22T04:15:18.827Z,3.53
2018-09-22T04:16:24.372Z,2.50
2018-09-22T04:17:29.947Z,2.40
2018-09-22T04:18:35.418Z,3.00
2018-09-22T04:19:40.886Z,3.17
2018-09-22T04:20:46.411Z,3.80
2018-09-22T04:21:51.831Z,3.70
2018-09-22T04:22:57.343Z,4.17
2018-09-22T04:24:10.661Z,2.20
2018-09-22T04:25:16.132Z,3.40
2018-09-22T04:26:21.573Z,3.20
2018-09-22T04:27:27.115Z,2.50
2018-09-22T04:28:32.611Z,3.23
2018-09-22T04:29:38.211Z,3.13
2018-09-22T04:30:43.720Z,2.90
2018-09-22T04:31:49.581Z,3.10
2018-09-22T04:32:55.059Z,3.30
2018-09-22T04:34:00.633Z,3.40
2018-09-22T04:35:06.225Z,3.27
2018-09-22T04:36:11.934Z,4.00
2018-09-22T04:37:17.414Z,2.83
2018-09-22T04:38:22.825Z,3.50
2018-09-22T04:39:28.269Z,3.70
2018-09-22T04:40:33.889Z,2.73
2018-09-22T04:41:40.832Z,2.80
2018-09-22T04:42:46.478Z,3.00
2018-09-22T04:43:52.014Z,3.03
2018-09-22T04:44:57.422Z,3.40
2018-09-22T04:46:03.157Z,3.03
2018-09-22T04:47:08.593Z,2.80
2018-09-22T04:48:14.115Z,3.50
2018-09-22T04:49:19.615Z,2.67
2018-09-22T04:50:25.091Z,2.80
2018-09-22T04:51:30.705Z,3.37
2018-09-22T04:52:36.153Z,3.77
2018-09-22T04:53:41.823Z,6.40
2018-09-22T04:54:47.268Z,3.70
2018-09-22T04:55:52.762Z,3.30
2018-09-22T04:56:58.257Z,3.50
2018-09-22T04:58:03.744Z,3.40
2018-09-22T04:59:09.170Z,4.00
2018-09-22T05:00:14.802Z,3.23
2018-09-22T05:01:20.306Z,3.53
2018-09-22T05:02:25.813Z,3.73
2018-09-22T05:03:31.229Z,3.20
2018-09-22T05:04:36.873Z,5.47
2018-09-22T05:05:42.409Z,3.70
2018-09-22T05:06:47.823Z,3.37
2018-09-22T05:07:53.192Z,4.00
2018-09-22T05:08:58.644Z,2.60
2018-09-22T05:10:04.241Z,3.60
2018-09-22T05:11:09.729Z,3.20
2018-09-22T05:12:15.253Z,3.57
2018-09-22T05:13:20.680Z,3.00
2018-09-22T05:14:26.247Z,3.17
2018-09-22T05:15:31.893Z,3.53
2018-09-22T05:16:38.084Z,3.07
2018-09-22T05:17:43.569Z,3.47
2018-09-22T05:18:49.033Z,3.40
2018-09-22T05:19:54.582Z,3.87
2018-09-22T05:21:00.168Z,3.70
2018-09-22T05:22:05.846Z,2.80
2018-09-22T05:23:11.296Z,2.50
2018-09-22T05:24:16.725Z,3.67
2018-09-22T05:25:22.317Z,2.87
2018-09-22T05:26:27.799Z,3.13
2018-09-22T05:27:33.278Z,3.53
2018-09-22T05:28:38.780Z,3.73
2018-09-22T05:29:44.248Z,3.10
2018-09-22T05:30:49.706Z,3.20
2018-09-22T05:31:55.136Z,3.60
2018-09-22T05:33:00.637Z,2.97
2018-09-22T05:34:06.239Z,4.17
2018-09-22T05:35:11.705Z,3.73
2018-09-22T05:36:17.133Z,3.80
2018-09-22T05:37:22.586Z,3.27
2018-09-22T05:38:28.036Z,3.13
2018-09-22T05:39:33.466Z,2.90
2018-09-22T05:40:38.986Z,3.60
2018-09-22T05:41:44.561Z,3.20
2018-09-22T05:42:49.957Z,3.33
2018-09-22T05:43:55.477Z,3.10
2018-09-22T05:45:00.922Z,3.37
2018-09-22T05:46:06.408Z,2.50
2018-09-22T05:47:11.854Z,3.00
2018-09-22T05:48:17.325Z,3.50
2018-09-22T05:49:22.829Z,2.77
2018-09-22T05:50:28.285Z,3.20
2018-09-22T05:51:34.688Z,3.57
2018-09-22T05:52:40.222Z,2.67
2018-09-22T05:53:45.714Z,2.90
2018-09-22T05:54:51.136Z,3.10
2018-09-22T05:55:56.598Z,3.40
2018-09-22T05:57:02.093Z,3.00
2018-09-22T05:58:07.670Z,3.00
2018-09-22T05:59:13.283Z,3.07
2018-09-22T06:00:18.759Z,3.03
2018-09-22T06:01:24.237Z,2.83
2018-09-22T06:02:29.673Z,3.00
2018-09-22T06:03:35.329Z,2.90
2018-09-22T06:04:40.791Z,3.00
2018-09-22T06:05:46.274Z,3.30
2018-09-22T06:06:51.744Z,2.53
2018-09-22T06:07:57.393Z,2.90
2018-09-22T06:09:02.844Z,2.80
2018-09-22T06:10:08.573Z,2.90
2018-09-22T06:11:14.222Z,2.60
2018-09-22T06:12:19.682Z,2.30
2018-09-22T06:13:25.103Z,1.87
2018-09-22T06:14:30.672Z,2.20
2018-09-22T06:15:36.180Z,2.30
2018-09-22T06:16:41.677Z,2.17
2018-09-22T06:17:47.136Z,2.13
2018-09-22T06:18:52.699Z,2.17
2018-09-22T06:19:58.118Z,2.03
2018-09-22T06:21:03.579Z,2.67
2018-09-22T06:22:09.033Z,2.23
2018-09-22T06:23:14.593Z,2.30
2018-09-22T06:24:20.030Z,2.30
2018-09-22T06:25:25.476Z,2.57
2018-09-22T06:26:30.965Z,2.17
2018-09-22T06:27:36.396Z,2.70
2018-09-22T06:28:41.975Z,2.53
2018-09-22T06:29:47.557Z,2.17
2018-09-22T06:30:53.215Z,2.90
2018-09-22T06:31:58.744Z,1.80
2018-09-22T06:33:04.367Z,2.77
2018-09-22T06:34:09.986Z,2.57
2018-09-22T06:35:15.413Z,2.10
2018-09-22T06:36:20.886Z,2.10
2018-09-22T06:37:26.306Z,2.50
2018-09-22T06:38:31.759Z,2.00
2018-09-22T06:39:37.274Z,2.13
2018-09-22T06:40:42.738Z,2.47
2018-09-22T06:41:48.347Z,2.40
2018-09-22T06:42:53.791Z,2.50
2018-09-22T06:43:59.254Z,2.43
2018-09-22T06:45:04.725Z,2.77
2018-09-22T06:46:10.417Z,2.80
2018-09-22T06:47:16.243Z,1.90
2018-09-22T06:48:21.749Z,2.13
2018-09-22T06:49:27.529Z,1.60
2018-09-22T06:50:32.973Z,2.00
2018-09-22T06:51:38.415Z,2.27
2018-09-22T06:52:43.941Z,2.07
2018-09-22T06:53:49.418Z,2.20
2018-09-22T06:54:54.962Z,3.30
2018-09-22T06:56:00.399Z,3.40
2018-09-22T06:57:05.926Z,2.13
2018-09-22T06:58:11.481Z,2.40
2018-09-22T06:59:17.051Z,2.80
2018-09-22T07:00:22.524Z,2.23
2018-09-22T07:01:28.017Z,1.70
2018-09-22T07:02:33.457Z,2.20
2018-09-22T07:03:39.058Z,2.30
2018-09-22T07:04:44.526Z,2.07
2018-09-22T07:05:49.937Z,2.30
2018-09-22T07:06:55.342Z,2.73
2018-09-22T07:08:00.889Z,2.40
2018-09-22T07:09:08.167Z,2.30
2018-09-22T07:10:13.714Z,2.17
2018-09-22T07:11:19.153Z,2.10
2018-09-22T07:12:24.648Z,3.70
2018-09-22T07:13:30.123Z,2.57
2018-09-22T07:14:35.510Z,2.30
2018-09-22T07:15:40.975Z,2.00
2018-09-22T07:16:46.826Z,1.97
2018-09-22T07:17:52.302Z,2.23
2018-09-22T07:18:57.739Z,1.90
2018-09-22T07:20:03.235Z,2.33
2018-09-22T07:21:09.796Z,1.90
2018-09-22T07:22:20.433Z,2.30
2018-09-22T07:23:25.870Z,1.93
2018-09-22T07:24:31.361Z,2.20
2018-09-22T07:25:36.948Z,3.37
2018-09-22T07:26:42.385Z,2.50
2018-09-22T07:27:47.860Z,1.80
2018-09-22T07:28:53.429Z,3.03
2018-09-22T07:29:58.900Z,1.83
2018-09-22T07:31:04.444Z,2.33
2018-09-22T07:32:09.953Z,2.30
2018-09-22T07:33:15.549Z,2.13
2018-09-22T07:34:21.302Z,2.60
2018-09-22T07:35:27.059Z,1.97
2018-09-22T07:36:32.854Z,2.00
2018-09-22T07:37:39.014Z,2.60
2018-09-22T07:38:44.837Z,2.17
2018-09-22T07:39:50.733Z,2.03
2018-09-22T07:40:56.281Z,1.80
2018-09-22T07:42:02.056Z,2.57
2018-09-22T07:43:07.893Z,1.97
2018-09-22T07:44:13.685Z,2.00
2018-09-22T07:45:19.445Z,2.60
2018-09-22T07:46:25.221Z,2.37
2018-09-22T07:47:30.954Z,2.50
2018-09-22T07:48:36.479Z,2.37
2018-09-22T07:49:42.216Z,2.63
2018-09-22T07:50:47.601Z,1.90
2018-09-22T07:51:53.074Z,3.60
2018-09-22T07:52:58.497Z,3.00
2018-09-22T07:54:03.961Z,2.97
2018-09-22T07:55:09.506Z,2.40
2018-09-22T07:56:15.081Z,2.50
2018-09-22T07:57:20.546Z,2.37
2018-09-22T07:58:26.042Z,2.37
2018-09-22T07:59:31.508Z,2.23
2018-09-22T08:00:37.296Z,3.23
2018-09-22T08:01:42.856Z,2.30
2018-09-22T08:02:48.341Z,3.40
2018-09-22T08:03:53.842Z,2.43
2018-09-22T08:04:59.542Z,2.20
2018-09-22T08:06:05.277Z,2.63
2018-09-22T08:07:10.972Z,2.30
2018-09-22T08:08:16.659Z,2.50
2018-09-22T08:09:22.284Z,2.80
2018-09-22T08:10:27.985Z,2.23
2018-09-22T08:11:33.723Z,2.63
2018-09-22T08:12:39.420Z,2.03
2018-09-22T08:13:45.310Z,2.47
2018-09-22T08:14:50.932Z,2.97
2018-09-22T08:15:56.700Z,2.30
2018-09-22T08:17:02.415Z,2.87
2018-09-22T08:18:08.043Z,2.60
2018-09-22T08:19:13.809Z,3.00
2018-09-22T08:20:19.704Z,2.60
2018-09-22T08:21:25.320Z,2.30
2018-09-22T08:22:31.134Z,2.73
2018-09-22T08:23:36.802Z,1.90
2018-09-22T08:24:42.718Z,3.30
2018-09-22T08:25:48.497Z,2.77
2018-09-22T08:26:54.209Z,2.20
2018-09-22T08:28:00.005Z,2.13
2018-09-22T08:29:06.219Z,2.47
2018-09-22T08:30:11.796Z,2.33
2018-09-22T08:31:17.687Z,3.03
2018-09-22T08:32:23.376Z,2.97
2018-09-22T08:33:29.110Z,2.80
2018-09-22T08:34:34.857Z,3.73
2018-09-22T08:35:40.395Z,2.70
2018-09-22T08:36:45.967Z,2.30
2018-09-22T08:37:51.465Z,2.10
2018-09-22T08:38:57.224Z,2.77
2018-09-22T08:40:02.647Z,2.73
2018-09-22T08:41:08.232Z,2.63
2018-09-22T08:42:13.749Z,2.50
2018-09-22T08:43:19.248Z,2.60
2018-09-22T08:44:24.721Z,3.20
2018-09-22T08:45:30.577Z,2.90
2018-09-22T08:46:37.420Z,2.63
2018-09-22T08:47:42.942Z,2.40
2018-09-22T08:48:48.448Z,2.43
2018-09-22T08:49:53.917Z,2.90
2018-09-22T08:50:59.410Z,2.30
2018-09-22T08:52:04.913Z,2.10
2018-09-22T08:53:11.485Z,3.50
2018-09-22T08:54:17.077Z,2.70
2018-09-22T08:55:22.537Z,2.67
2018-09-22T08:56:28.117Z,2.57
2018-09-22T08:57:33.681Z,2.20
2018-09-22T08:58:39.198Z,2.00
2018-09-22T08:59:44.891Z,2.40
2018-09-22T09:00:50.365Z,2.63
2018-09-22T09:01:55.866Z,2.70
2018-09-22T09:03:01.393Z,2.20
2018-09-22T09:04:06.873Z,2.43
2018-09-22T09:05:12.800Z,2.43
2018-09-22T09:06:18.249Z,3.40
2018-09-22T09:07:23.717Z,2.70
2018-09-22T09:08:29.173Z,2.83
2018-09-22T09:09:34.648Z,3.73
2018-09-22T09:10:40.421Z,3.80
2018-09-22T09:11:46.093Z,2.57
2018-09-22T09:12:51.521Z,2.30
2018-09-22T09:13:56.979Z,2.90
2018-09-22T09:15:02.438Z,3.80
2018-09-22T09:16:07.932Z,2.50
2018-09-22T09:17:13.641Z,2.80
2018-09-22T09:18:19.055Z,2.97
2018-09-22T09:19:24.613Z,2.77
2018-09-22T09:20:30.121Z,2.73
2018-09-22T09:21:35.593Z,2.40
2018-09-22T09:22:41.201Z,2.40
2018-09-22T09:23:46.825Z,2.30
2018-09-22T09:24:52.333Z,2.10
2018-09-22T09:25:57.830Z,2.70
2018-09-22T09:27:03.355Z,2.70
2018-09-22T09:28:08.901Z,2.70
2018-09-22T09:29:14.446Z,2.10
2018-09-22T09:30:19.953Z,1.90
2018-09-22T09:31:25.462Z,2.00
2018-09-22T09:32:30.917Z,2.20
2018-09-22T09:33:36.416Z,2.23
2018-09-22T09:34:41.899Z,1.90
2018-09-22T09:35:47.366Z,2.10
2018-09-22T09:36:53.040Z,1.97
2018-09-22T09:37:58.662Z,2.40
2018-09-22T09:39:05.522Z,1.77
2018-09-22T09:40:11.115Z,2.10
2018-09-22T09:41:16.595Z,2.23
2018-09-22T09:42:22.161Z,1.93
2018-09-22T09:43:27.683Z,2.17
2018-09-22T09:44:33.205Z,2.70
2018-09-22T09:45:38.653Z,2.00
2018-09-22T09:46:44.130Z,2.20
2018-09-22T09:47:49.912Z,1.60
2018-09-22T09:48:55.392Z,2.10
2018-09-22T09:50:00.924Z,2.20
2018-09-22T09:51:06.475Z,2.50
2018-09-22T09:52:12.009Z,1.70
2018-09-22T09:53:17.501Z,2.93
2018-09-22T09:54:23.225Z,1.90
2018-09-22T09:55:28.749Z,1.83
2018-09-22T09:56:34.530Z,1.90
2018-09-22T09:57:40.004Z,2.23
2018-09-22T09:58:45.571Z,2.27
2018-09-22T09:59:51.065Z,2.03
2018-09-22T10:00:56.555Z,2.47
2018-09-22T10:02:02.087Z,1.77
2018-09-22T10:03:07.580Z,2.40
2018-09-22T10:04:13.395Z,2.17
2018-09-22T10:05:19.282Z,2.20
2018-09-22T10:06:24.897Z,2.63
2018-09-22T10:07:30.422Z,2.03
2018-09-22T10:08:35.969Z,2.80
2018-09-22T10:09:41.430Z,2.20
2018-09-22T10:10:47.609Z,2.50
2018-09-22T10:11:53.278Z,4.10
2018-09-22T10:12:58.739Z,2.40
2018-09-22T10:14:04.190Z,2.70
2018-09-22T10:15:09.709Z,2.90
2018-09-22T10:16:15.239Z,2.00
2018-09-22T10:17:20.665Z,2.30
2018-09-22T10:18:26.098Z,2.17
2018-09-22T10:19:31.650Z,2.30
2018-09-22T10:20:37.109Z,2.73
2018-09-22T10:21:43.039Z,2.47
2018-09-22T10:22:48.490Z,2.67
2018-09-22T10:23:53.989Z,2.73
2018-09-22T10:24:59.510Z,2.03
2018-09-22T10:26:05.081Z,2.40
2018-09-22T10:27:10.675Z,2.10
2018-09-22T10:28:16.270Z,2.53
2018-09-22T10:29:21.764Z,2.03
2018-09-22T10:30:27.281Z,2.03
2018-09-22T10:31:32.772Z,4.07
2018-09-22T10:32:38.321Z,2.87
2018-09-22T10:33:43.868Z,3.27
2018-09-22T10:34:49.329Z,2.90
2018-09-22T10:35:54.776Z,2.70
2018-09-22T10:37:00.218Z,2.63
2018-09-22T10:38:05.789Z,3.00
2018-09-22T10:39:11.605Z,3.10
2018-09-22T10:40:17.169Z,3.50
2018-09-22T10:41:22.745Z,3.40
2018-09-22T10:42:28.294Z,3.33
2018-09-22T10:43:33.873Z,4.30
2018-09-22T10:44:39.368Z,2.97
2018-09-22T10:45:44.991Z,2.70
2018-09-22T10:46:50.434Z,3.77
2018-09-22T10:47:56.001Z,3.90
2018-09-22T10:49:01.574Z,3.63
2018-09-22T10:50:07.406Z,2.37
2018-09-22T10:51:13.017Z,2.60
2018-09-22T10:52:18.546Z,2.30
2018-09-22T10:53:24.073Z,2.00
2018-09-22T10:54:29.651Z,1.70
2018-09-22T10:55:35.085Z,2.80
2018-09-22T10:56:40.564Z,1.67
2018-09-22T10:57:46.244Z,2.00
2018-09-22T10:58:51.941Z,2.17
2018-09-22T10:59:57.400Z,2.30
2018-09-22T11:01:02.940Z,2.47
2018-09-22T11:02:09.538Z,3.07
2018-09-22T11:03:18.773Z,2.57
2018-09-22T11:04:25.349Z,3.23
2018-09-22T11:05:32.339Z,3.47
2018-09-22T11:06:38.274Z,3.23
2018-09-22T11:07:43.732Z,3.03
2018-09-22T11:08:49.231Z,2.93
2018-09-22T11:09:54.736Z,3.73
2018-09-22T11:11:00.208Z,3.20
2018-09-22T11:12:05.736Z,2.63
2018-09-22T11:13:11.284Z,2.40
2018-09-22T11:14:16.721Z,2.80
2018-09-22T11:15:22.189Z,2.70
2018-09-22T11:16:27.692Z,2.73
2018-09-22T11:17:33.188Z,2.20
2018-09-22T11:18:38.707Z,2.30
2018-09-22T11:19:44.183Z,2.60
2018-09-22T11:20:49.686Z,2.50
2018-09-22T11:21:55.232Z,2.27
2018-09-22T11:23:00.668Z,2.33
2018-09-22T11:24:06.130Z,2.10
2018-09-22T11:25:11.643Z,2.53
2018-09-22T11:26:17.104Z,2.47
2018-09-22T11:27:22.573Z,2.67
2018-09-22T11:28:27.969Z,2.60
2018-09-22T11:29:33.554Z,2.97
2018-09-22T11:30:39.085Z,2.60
2018-09-22T11:31:44.557Z,2.83
2018-09-22T11:32:50.009Z,2.90
2018-09-22T11:33:55.481Z,3.47
2018-09-22T11:35:01.135Z,2.27
2018-09-22T11:36:06.885Z,2.50
2018-09-22T11:37:12.293Z,2.23
2018-09-22T11:38:17.807Z,2.50
2018-09-22T11:39:23.217Z,2.37
2018-09-22T11:40:28.643Z,2.23
2018-09-22T11:41:34.199Z,2.30
2018-09-22T11:42:39.657Z,2.00
2018-09-22T11:43:45.196Z,1.80
2018-09-22T11:44:50.676Z,2.60
2018-09-22T11:45:56.173Z,2.37
2018-09-22T11:47:01.637Z,1.90
2018-09-22T11:48:07.109Z,2.40
2018-09-22T11:49:12.749Z,2.20
2018-09-22T11:50:18.253Z,2.20
2018-09-22T11:51:23.738Z,1.70
2018-09-22T11:52:29.186Z,1.23
2018-09-22T11:53:34.643Z,1.53
2018-09-22T11:54:40.329Z,1.27
2018-09-22T11:55:45.824Z,1.40
2018-09-22T11:56:51.369Z,1.13
2018-09-22T11:57:56.829Z,1.00
2018-09-22T11:59:02.449Z,0.80
2018-09-22T12:00:08.192Z,1.20
2018-09-22T12:01:13.712Z,1.33
2018-09-22T12:02:19.192Z,1.40
2018-09-22T12:03:24.745Z,1.47
2018-09-22T12:04:30.267Z,3.53
2018-09-22T12:05:35.747Z,1.93
2018-09-22T12:06:41.358Z,1.30
2018-09-22T12:07:46.825Z,1.00
2018-09-22T12:08:52.296Z,1.33
2018-09-22T12:09:57.738Z,1.13
2018-09-22T12:11:03.453Z,1.90
2018-09-22T12:12:09.081Z,1.53
2018-09-22T12:13:14.602Z,1.20
2018-09-22T12:14:20.075Z,1.50
2018-09-22T12:15:25.725Z,0.93
2018-09-22T12:16:31.162Z,1.40
2018-09-22T12:17:36.637Z,1.33
2018-09-22T12:18:42.095Z,1.20
2018-09-22T12:19:48.068Z,1.03
2018-09-22T12:20:53.561Z,1.27
2018-09-22T12:21:58.981Z,1.40
2018-09-22T12:23:04.491Z,0.83
2018-09-22T12:24:09.964Z,0.90
2018-09-22T12:25:15.393Z,1.10
2018-09-22T12:26:20.875Z,1.00
2018-09-22T12:27:26.348Z,0.80
2018-09-22T12:28:31.990Z,1.10
2018-09-22T12:29:37.677Z,1.10
2018-09-22T12:30:43.209Z,1.93
2018-09-22T12:31:48.742Z,1.43
2018-09-22T12:32:54.412Z,1.13
2018-09-22T12:33:59.931Z,1.30
2018-09-22T12:35:05.356Z,1.60
2018-09-22T12:36:10.851Z,1.20
2018-09-22T12:37:16.442Z,1.13
2018-09-22T12:38:21.973Z,1.20
2018-09-22T12:39:27.409Z,1.70
2018-09-22T12:40:32.865Z,0.93
2018-09-22T12:41:38.841Z,1.03
2018-09-22T12:42:44.357Z,1.67
2018-09-22T12:43:49.818Z,1.20
2018-09-22T12:44:55.427Z,1.50
2018-09-22T12:46:00.994Z,1.30
2018-09-22T12:47:06.856Z,1.50
2018-09-22T12:48:12.396Z,1.17
2018-09-22T12:49:17.827Z,1.27
2018-09-22T12:50:23.301Z,1.57
2018-09-22T12:51:28.752Z,1.53
2018-09-22T12:52:34.700Z,1.40
2018-09-22T12:53:40.250Z,2.03
2018-09-22T12:54:45.821Z,1.90
2018-09-22T12:55:51.298Z,1.73
2018-09-22T12:56:56.785Z,1.20
2018-09-22T12:58:02.374Z,1.40
2018-09-22T12:59:08.127Z,1.23
2018-09-22T13:00:13.642Z,1.70
2018-09-22T13:01:19.210Z,1.63
2018-09-22T13:02:24.694Z,1.53
2018-09-22T13:03:30.175Z,1.63
2018-09-22T13:04:35.665Z,1.60
2018-09-22T13:05:41.112Z,1.97
2018-09-22T13:06:46.557Z,2.00
2018-09-22T13:07:52.116Z,1.90
2018-09-22T13:08:57.843Z,1.83
2018-09-22T13:10:03.329Z,2.00
2018-09-22T13:11:08.997Z,1.80
2018-09-22T13:12:14.436Z,2.70
2018-09-22T13:13:20.015Z,2.20
2018-09-22T13:14:25.442Z,2.10
2018-09-22T13:15:30.914Z,2.17
2018-09-22T13:16:36.458Z,2.00
2018-09-22T13:17:41.998Z,2.23
2018-09-22T13:18:47.558Z,2.10
2018-09-22T13:19:53.062Z,2.50
2018-09-22T13:20:58.567Z,2.43
2018-09-22T13:22:04.338Z,2.17
2018-09-22T13:23:09.774Z,2.50
2018-09-22T13:24:15.376Z,2.30
2018-09-22T13:25:20.848Z,1.70
2018-09-22T13:26:26.401Z,2.23
2018-09-22T13:27:31.940Z,3.13
2018-09-22T13:28:37.412Z,2.50
2018-09-22T13:29:43.158Z,2.40
2018-09-22T13:30:48.622Z,2.53
2018-09-22T13:31:54.141Z,3.00
2018-09-22T13:32:59.661Z,2.20
2018-09-22T13:34:05.354Z,3.07
2018-09-22T13:35:10.804Z,2.80
2018-09-22T13:36:16.274Z,2.73
2018-09-22T13:37:21.781Z,3.03
2018-09-22T13:38:27.274Z,3.00
2018-09-22T13:39:32.776Z,3.00
2018-09-22T13:40:38.491Z,2.93
2018-09-22T13:41:43.946Z,3.10
2018-09-22T13:42:49.414Z,2.83
2018-09-22T13:43:54.970Z,2.90
2018-09-22T13:45:00.485Z,3.07
2018-09-22T13:46:05.996Z,3.20
2018-09-22T13:47:11.407Z,3.20
2018-09-22T13:48:16.954Z,3.00
2018-09-22T13:49:22.422Z,3.07
2018-09-22T13:50:27.974Z,3.97
2018-09-22T13:51:34.133Z,3.80
2018-09-22T13:52:39.637Z,3.30
2018-09-22T13:53:45.371Z,4.50
2018-09-22T13:54:50.828Z,3.67
2018-09-22T13:55:56.248Z,3.93
2018-09-22T13:57:01.728Z,4.13
2018-09-22T13:58:07.370Z,4.00
2018-09-22T13:59:12.869Z,3.50
2018-09-22T14:00:18.341Z,4.37
2018-09-22T14:01:23.796Z,4.97
2018-09-22T14:02:29.364Z,4.83
2018-09-22T14:03:34.951Z,6.40
2018-09-22T14:04:40.436Z,6.40
2018-09-22T14:05:45.923Z,6.00
2018-09-22T14:06:51.356Z,5.37
2018-09-22T14:07:56.780Z,5.13
2018-09-22T14:09:02.289Z,5.27
2018-09-22T14:10:08.109Z,5.10
2018-09-22T14:11:13.541Z,4.90
2018-09-22T14:12:19.066Z,5.93
2018-09-22T14:13:24.533Z,5.20
2018-09-22T14:14:30.096Z,6.07
2018-09-22T14:15:35.649Z,5.90
2018-09-22T14:16:41.170Z,5.90
2018-09-22T14:17:49.178Z,5.57
2018-09-22T14:18:57.794Z,4.43
2018-09-22T14:20:03.481Z,4.70
2018-09-22T14:21:09.063Z,3.00
2018-09-22T14:22:14.521Z,2.63
2018-09-22T14:23:19.927Z,2.07
2018-09-22T14:24:25.493Z,2.30
2018-09-22T14:25:31.000Z,2.20
2018-09-22T14:26:36.841Z,2.40
2018-09-22T14:27:42.278Z,2.27
2018-09-22T14:28:47.728Z,2.17
2018-09-22T14:29:53.173Z,2.23
2018-09-22T14:30:58.618Z,1.80
2018-09-22T14:32:04.189Z,2.27
2018-09-22T14:33:09.719Z,1.70